Aviation Digital Data Service (ADDS)

Output produced by TAFs form (0808 UTC 26 June 2016)
found at http://www.aviationweather.gov/adds/tafs/
 
KPSF 260524Z 2606/2706 00000KT P6SM SKC 
     FM261300 21007KT P6SM SCT040 SCT250